createdAt,value
2023-03-08T00:00:48.713Z,92.8
2023-03-08T00:01:48.922Z,92.9
2023-03-08T00:02:49.580Z,92.9
2023-03-08T00:03:49.858Z,93.56
2023-03-08T00:04:50.522Z,93.65
2023-03-08T00:05:51.051Z,93.56
2023-03-08T00:06:51.534Z,93.75
2023-03-08T00:07:51.894Z,93.94
2023-03-08T00:08:52.321Z,93.94
2023-03-08T00:09:53.023Z,93.84
2023-03-08T00:10:53.000Z,93.56
2023-03-08T00:11:54.256Z,93.56
2023-03-08T00:12:55.189Z,93.46
2023-03-08T00:13:55.637Z,93.84
2023-03-08T00:14:56.236Z,93.75
2023-03-08T00:15:56.512Z,93.94
2023-03-08T00:16:57.835Z,93.46
2023-03-08T00:17:58.472Z,93.46
2023-03-08T00:18:59.697Z,93.37
2023-03-08T00:20:00.774Z,93.84
2023-03-08T00:21:00.985Z,93.08
2023-03-08T00:22:01.917Z,93.08
2023-03-08T00:23:02.162Z,93.94
2023-03-08T00:24:02.546Z,93.94
2023-03-08T00:25:03.085Z,93.37
2023-03-08T00:26:03.749Z,93.75
2023-03-08T00:27:03.691Z,93.94
2023-03-08T00:28:04.623Z,92.99
2023-03-08T00:29:04.930Z,93.75
2023-03-08T00:30:05.781Z,93.65
2023-03-08T00:31:06.502Z,92.9
2023-03-08T00:32:07.442Z,93.27
2023-03-08T00:33:08.067Z,92.9
2023-03-08T00:34:08.412Z,93.08
2023-03-08T00:35:08.941Z,93.18
2023-03-08T00:36:09.517Z,93.08
2023-03-08T00:37:10.150Z,93.27
2023-03-08T00:38:10.191Z,93.27
2023-03-08T00:39:10.409Z,93.37
2023-03-08T00:40:11.624Z,93.84
2023-03-08T00:41:11.882Z,93.65
2023-03-08T00:42:12.090Z,93.46
2023-03-08T00:43:12.570Z,93.75
2023-03-08T00:44:13.292Z,94.04
2023-03-08T00:45:13.882Z,94.23
2023-03-08T00:46:14.425Z,94.89
2023-03-08T00:47:14.852Z,94.79
2023-03-08T00:48:15.329Z,94.79
2023-03-08T00:49:15.577Z,94.42
2023-03-08T00:50:16.682Z,94.18
2023-03-08T00:51:17.362Z,94.7
2023-03-08T00:52:17.589Z,94.79
2023-03-08T00:53:17.832Z,95.22
2023-03-08T00:54:18.188Z,95.22
2023-03-08T00:55:19.093Z,95.79
2023-03-08T00:56:19.335Z,96.17
2023-03-08T00:57:20.554Z,95.69
2023-03-08T00:58:20.759Z,95.22
2023-03-08T00:59:20.671Z,95.03
2023-03-08T01:00:21.601Z,95.12
2023-03-08T01:01:23.137Z,95.03
2023-03-08T01:02:23.378Z,95.12
2023-03-08T01:03:23.597Z,95.41
2023-03-08T01:04:23.729Z,95.31
2023-03-08T01:05:24.671Z,95.12
2023-03-08T01:06:24.592Z,95.22
2023-03-08T01:07:25.250Z,94.93
2023-03-08T01:08:26.563Z,94.65
2023-03-08T01:09:27.502Z,95.12
2023-03-08T01:10:27.849Z,95.12
2023-03-08T01:11:28.852Z,95.41
2023-03-08T01:12:29.792Z,95.22
2023-03-08T01:13:30.008Z,95.41
2023-03-08T01:14:30.393Z,95.41
2023-03-08T01:15:30.927Z,95.31
2023-03-08T01:16:31.598Z,95.41
2023-03-08T01:17:32.803Z,95.79
2023-03-08T01:18:32.709Z,95.6
2023-03-08T01:19:33.935Z,96.45
2023-03-08T01:20:34.895Z,96.36
2023-03-08T01:21:35.552Z,96.55
2023-03-08T01:22:36.759Z,96.45
2023-03-08T01:23:37.030Z,96.55
2023-03-08T01:24:38.047Z,96.73
2023-03-08T01:25:38.967Z,96.55
2023-03-08T01:26:39.305Z,96.92
2023-03-08T01:27:40.261Z,96.64
2023-03-08T01:28:40.497Z,96.64
2023-03-08T01:29:40.973Z,96.45
2023-03-08T01:30:41.197Z,96.36
2023-03-08T01:31:41.698Z,96.26
2023-03-08T01:32:41.955Z,96.64
2023-03-08T01:33:43.255Z,96.73
2023-03-08T01:34:44.047Z,96.17
2023-03-08T01:35:44.651Z,96.59
2023-03-08T01:36:45.032Z,96.73
2023-03-08T01:37:45.683Z,96.55
2023-03-08T01:38:46.924Z,96.78
2023-03-08T01:39:47.438Z,96.69
2023-03-08T01:40:48.385Z,96.59
2023-03-08T01:41:48.667Z,96.97
2023-03-08T01:42:49.029Z,97.11
2023-03-08T01:43:49.955Z,97.4
2023-03-08T01:44:51.242Z,97.21
2023-03-08T01:45:51.156Z,96.92
2023-03-08T01:46:52.416Z,97.07
2023-03-08T01:47:53.340Z,97.54
2023-03-08T01:48:53.985Z,97.26
2023-03-08T01:49:53.942Z,97.26
2023-03-08T01:50:54.602Z,96.78
2023-03-08T01:51:54.533Z,96.5
2023-03-08T01:52:55.745Z,96.5
2023-03-08T01:53:55.980Z,96.31
2023-03-08T01:54:56.333Z,97.07
2023-03-08T01:55:56.263Z,96.5
2023-03-08T01:56:57.233Z,96.5
2023-03-08T01:57:57.169Z,96.22
2023-03-08T01:58:58.095Z,96.59
2023-03-08T01:59:58.578Z,96.88
2023-03-08T02:00:58.632Z,96.22
2023-03-08T02:01:58.705Z,95.74
2023-03-08T02:02:59.661Z,95.65
2023-03-08T02:04:00.309Z,95.93
2023-03-08T02:05:01.327Z,96.03
2023-03-08T02:06:01.534Z,96.03
2023-03-08T02:07:02.178Z,96.12
2023-03-08T02:08:02.383Z,95.55
2023-03-08T02:09:02.339Z,95.26
2023-03-08T02:10:03.589Z,95.36
2023-03-08T02:11:04.249Z,95.17
2023-03-08T02:12:05.207Z,95.07
2023-03-08T02:13:05.428Z,95.26
2023-03-08T02:14:06.077Z,94.6
2023-03-08T02:15:06.138Z,95.36
2023-03-08T02:16:07.097Z,94.79
2023-03-08T02:17:08.009Z,95.17
2023-03-08T02:18:08.505Z,95.07
2023-03-08T02:19:09.449Z,94.7
2023-03-08T02:20:09.677Z,94.04
2023-03-08T02:21:10.615Z,94.13
2023-03-08T02:22:11.618Z,94.6
2023-03-08T02:23:11.825Z,94.23
2023-03-08T02:24:12.071Z,94.13
2023-03-08T02:25:12.395Z,94.7
2023-03-08T02:26:13.586Z,94.6
2023-03-08T02:27:13.876Z,94.13
2023-03-08T02:28:14.828Z,94.79
2023-03-08T02:29:15.434Z,94.51
2023-03-08T02:30:16.063Z,95.36
2023-03-08T02:31:16.275Z,94.79
2023-03-08T02:32:17.637Z,94.7
2023-03-08T02:33:17.616Z,94.04
2023-03-08T02:34:18.559Z,94.32
2023-03-08T02:35:18.602Z,94.04
2023-03-08T02:36:19.827Z,94.04
2023-03-08T02:37:20.213Z,94.04
2023-03-08T02:38:21.133Z,93.56
2023-03-08T02:39:22.200Z,93.75
2023-03-08T02:40:22.423Z,93.75
2023-03-08T02:41:23.349Z,93.56
2023-03-08T02:42:23.892Z,93.46
2023-03-08T02:43:24.542Z,93.56
2023-03-08T02:44:25.483Z,93.84
2023-03-08T02:45:26.476Z,94.23
2023-03-08T02:46:26.673Z,93.65
2023-03-08T02:47:27.302Z,94.32
2023-03-08T02:48:27.926Z,94.6
2023-03-08T02:49:28.168Z,94.51
2023-03-08T02:50:28.472Z,94.32
2023-03-08T02:51:28.975Z,95.26
2023-03-08T02:52:29.597Z,95.45
2023-03-08T02:53:30.523Z,95.98
2023-03-08T02:54:31.051Z,96.36
2023-03-08T02:55:31.409Z,96.73
2023-03-08T02:56:31.609Z,97.21
2023-03-08T02:57:31.885Z,97.49
2023-03-08T02:58:32.530Z,97.87
2023-03-08T02:59:33.459Z,98.35
2023-03-08T03:00:34.105Z,98.91
2023-03-08T03:01:34.539Z,98.72
2023-03-08T03:02:34.910Z,99.29
2023-03-08T03:03:34.882Z,99.77
2023-03-08T03:04:35.820Z,99.67
2023-03-08T03:05:36.886Z,99.99
2023-03-08T03:06:37.871Z,99.99
2023-03-08T03:07:38.169Z,99.99
2023-03-08T03:08:39.092Z,99.99
2023-03-08T03:09:40.055Z,99.99
2023-03-08T03:10:40.283Z,99.99
2023-03-08T03:11:40.778Z,99.99
2023-03-08T03:12:41.013Z,99.99
2023-03-08T03:13:41.221Z,99.99
2023-03-08T03:14:41.899Z,99.99
2023-03-08T03:15:42.829Z,99.99
2023-03-08T03:16:43.988Z,99.99
2023-03-08T03:17:44.187Z,99.99
2023-03-08T03:18:44.400Z,99.99
2023-03-08T03:19:45.042Z,99.99
2023-03-08T03:20:45.956Z,99.99
2023-03-08T03:21:46.679Z,99.99
2023-03-08T03:22:46.901Z,99.99
2023-03-08T03:23:47.124Z,99.99
2023-03-08T03:24:48.068Z,99.99
2023-03-08T03:25:48.667Z,99.99
2023-03-08T03:26:49.592Z,99.99
2023-03-08T03:27:49.873Z,99.99
2023-03-08T03:28:50.501Z,99.99
2023-03-08T03:29:51.428Z,99.99
2023-03-08T03:30:52.089Z,99.99
2023-03-08T03:31:51.848Z,99.99
2023-03-08T03:32:52.609Z,99.99
2023-03-08T03:33:53.239Z,99.99
2023-03-08T03:34:53.956Z,99.99
2023-03-08T03:35:54.519Z,99.99
2023-03-08T03:36:54.961Z,99.99
2023-03-08T03:37:55.446Z,99.99
2023-03-08T03:38:56.084Z,99.99
2023-03-08T03:39:57.075Z,99.99
2023-03-08T03:40:57.308Z,99.99
2023-03-08T03:41:58.241Z,99.99
2023-03-08T03:42:58.830Z,99.99
2023-03-08T03:43:59.783Z,99.99
2023-03-08T03:45:00.036Z,99.99
2023-03-08T03:46:01.035Z,99.99
2023-03-08T03:47:01.368Z,99.77
2023-03-08T03:48:01.270Z,99.96
2023-03-08T03:49:02.221Z,99.96
2023-03-08T03:50:02.857Z,99.96
2023-03-08T03:51:03.762Z,99.96
2023-03-08T03:52:04.978Z,99.48
2023-03-08T03:53:05.946Z,99.58
2023-03-08T03:54:07.394Z,99.48
2023-03-08T03:55:06.755Z,99.58
2023-03-08T03:56:07.110Z,99.39
2023-03-08T03:57:07.069Z,99.2
2023-03-08T03:58:07.379Z,99.39
2023-03-08T03:59:08.584Z,99.77
2023-03-08T04:00:08.964Z,99.2
2023-03-08T04:01:10.214Z,98.91
2023-03-08T04:02:10.428Z,98.63
2023-03-08T04:03:11.382Z,98.63
2023-03-08T04:04:11.580Z,99.29
2023-03-08T04:05:12.060Z,99.01
2023-03-08T04:06:12.212Z,99.67
2023-03-08T04:07:13.305Z,99.48
2023-03-08T04:08:13.800Z,99.58
2023-03-08T04:09:14.002Z,99.96
2023-03-08T04:10:14.712Z,99.77
2023-03-08T04:11:15.427Z,99.99
2023-03-08T04:12:15.534Z,99.99
2023-03-08T04:13:16.058Z,99.96
2023-03-08T04:14:16.543Z,99.99
2023-03-08T04:15:16.525Z,99.99
2023-03-08T04:16:17.310Z,99.99
2023-03-08T04:17:17.121Z,99.99
2023-03-08T04:18:18.045Z,99.99
2023-03-08T04:19:18.535Z,99.99
2023-03-08T04:20:19.462Z,99.99
2023-03-08T04:21:19.711Z,99.99
2023-03-08T04:22:19.926Z,99.99
2023-03-08T04:23:20.824Z,99.99
2023-03-08T04:24:21.040Z,99.99
2023-03-08T04:25:21.278Z,99.99
2023-03-08T04:26:22.292Z,99.99
2023-03-08T04:27:22.548Z,99.99
2023-03-08T04:28:22.833Z,99.99
2023-03-08T04:29:23.037Z,99.99
2023-03-08T04:30:23.716Z,99.99
2023-03-08T04:31:24.531Z,99.99
2023-03-08T04:32:24.938Z,99.99
2023-03-08T04:33:25.330Z,99.99
2023-03-08T04:34:25.520Z,99.99
2023-03-08T04:35:26.462Z,99.99
2023-03-08T04:36:26.688Z,99.99
2023-03-08T04:37:27.893Z,99.99
2023-03-08T04:38:28.542Z,99.99
2023-03-08T04:39:28.743Z,99.99
2023-03-08T04:40:29.836Z,99.99
2023-03-08T04:41:30.064Z,99.99
2023-03-08T04:42:30.990Z,99.99
2023-03-08T04:43:31.221Z,99.99
2023-03-08T04:44:32.442Z,99.99
2023-03-08T04:45:32.356Z,99.99
2023-03-08T04:46:32.616Z,99.99
2023-03-08T04:47:33.112Z,99.99
2023-03-08T04:48:34.033Z,99.99
2023-03-08T04:49:34.549Z,99.99
2023-03-08T04:50:35.467Z,99.99
2023-03-08T04:51:36.387Z,99.99
2023-03-08T04:52:36.994Z,99.99
2023-03-08T04:53:37.636Z,99.99
2023-03-08T04:54:37.853Z,99.99
2023-03-08T04:55:38.077Z,99.99
2023-03-08T04:56:38.343Z,99.99
2023-03-08T04:57:39.538Z,99.99
2023-03-08T04:58:40.068Z,99.99
2023-03-08T04:59:40.726Z,99.99
2023-03-08T05:00:41.365Z,99.99
2023-03-08T05:01:42.286Z,99.99
2023-03-08T05:02:43.209Z,99.99
2023-03-08T05:03:43.560Z,99.99
2023-03-08T05:04:44.875Z,99.99
2023-03-08T05:05:45.251Z,99.99
2023-03-08T05:06:46.010Z,99.99
2023-03-08T05:07:46.944Z,99.99
2023-03-08T05:08:47.598Z,99.99
2023-03-08T05:09:48.362Z,99.99
2023-03-08T05:10:49.608Z,99.99
2023-03-08T05:11:50.157Z,99.99
2023-03-08T05:12:50.063Z,99.99
2023-03-08T05:13:51.303Z,99.99
2023-03-08T05:14:52.229Z,99.99
2023-03-08T05:15:53.031Z,99.99
2023-03-08T05:16:53.779Z,99.99
2023-03-08T05:17:54.063Z,99.99
2023-03-08T05:18:55.284Z,99.99
2023-03-08T05:19:55.501Z,99.99
2023-03-08T05:20:55.848Z,99.99
2023-03-08T05:21:56.767Z,99.99
2023-03-08T05:23:04.740Z,99.99
2023-03-08T05:23:58.711Z,99.99
2023-03-08T05:24:59.136Z,99.99
2023-03-08T05:25:59.672Z,99.99
2023-03-08T05:26:59.880Z,99.99
2023-03-08T05:28:00.792Z,99.99
2023-03-08T05:29:01.406Z,99.99
2023-03-08T05:30:01.614Z,99.99
2023-03-08T05:31:01.855Z,99.99
2023-03-08T05:32:02.266Z,99.99
2023-03-08T05:33:02.546Z,99.99
2023-03-08T05:34:03.465Z,99.99
2023-03-08T05:35:03.959Z,99.99
2023-03-08T05:36:04.743Z,99.99
2023-03-08T05:37:05.224Z,99.99
2023-03-08T05:38:05.440Z,99.99
2023-03-08T05:39:05.648Z,99.99
2023-03-08T05:40:05.588Z,99.99
2023-03-08T05:41:06.536Z,99.99
2023-03-08T05:42:07.811Z,99.99
2023-03-08T05:43:08.023Z,99.99
2023-03-08T05:44:08.280Z,99.99
2023-03-08T05:45:09.358Z,99.99
2023-03-08T05:46:09.698Z,99.99
2023-03-08T05:47:10.189Z,99.99
2023-03-08T05:48:10.822Z,99.99
2023-03-08T05:49:11.059Z,99.99
2023-03-08T05:50:11.684Z,99.99
2023-03-08T05:51:11.943Z,99.99
2023-03-08T05:52:12.657Z,99.99
2023-03-08T05:53:13.875Z,99.99
2023-03-08T05:54:14.067Z,99.99
2023-03-08T05:55:14.293Z,99.99
2023-03-08T05:56:15.064Z,99.99
2023-03-08T05:57:15.288Z,99.99
2023-03-08T05:58:15.918Z,99.99
2023-03-08T05:59:17.191Z,99.99
2023-03-08T06:00:17.716Z,99.99
2023-03-08T06:01:18.391Z,99.99
2023-03-08T06:02:19.406Z,99.96
2023-03-08T06:03:19.970Z,99.99
2023-03-08T06:04:20.420Z,99.96
2023-03-08T06:05:21.051Z,99.86
2023-03-08T06:06:22.301Z,99.96
2023-03-08T06:07:22.836Z,99.99
2023-03-08T06:08:23.758Z,99.99
2023-03-08T06:09:24.426Z,99.99
2023-03-08T06:10:25.330Z,99.99
2023-03-08T06:11:25.858Z,99.99
2023-03-08T06:12:26.532Z,99.99
2023-03-08T06:13:27.034Z,99.99
2023-03-08T06:14:27.100Z,99.99
2023-03-08T06:15:28.037Z,99.99
2023-03-08T06:16:28.094Z,99.99
2023-03-08T06:17:29.315Z,99.99
2023-03-08T06:18:29.964Z,99.99
2023-03-08T06:19:30.608Z,99.99
2023-03-08T06:20:31.534Z,99.99
2023-03-08T06:21:32.452Z,99.99
2023-03-08T06:22:33.070Z,99.99
2023-03-08T06:23:34.311Z,99.99
2023-03-08T06:24:34.794Z,99.99
2023-03-08T06:25:35.722Z,99.99
2023-03-08T06:26:36.095Z,99.99
2023-03-08T06:27:37.049Z,99.96
2023-03-08T06:28:38.254Z,99.29
2023-03-08T06:29:38.656Z,99.29
2023-03-08T06:30:39.958Z,98.63
2023-03-08T06:31:40.626Z,98.44
2023-03-08T06:32:41.780Z,98.44
2023-03-08T06:33:42.289Z,98.44
2023-03-08T06:34:43.199Z,97.59
2023-03-08T06:35:43.917Z,98.06
2023-03-08T06:36:44.541Z,97.3
2023-03-08T06:37:45.585Z,97.21
2023-03-08T06:38:46.097Z,97.49
2023-03-08T06:39:46.308Z,96.64
2023-03-08T06:40:46.977Z,95.69
2023-03-08T06:41:47.587Z,95.88
2023-03-08T06:42:47.622Z,96.07
2023-03-08T06:43:48.927Z,96.36
2023-03-08T06:44:49.497Z,96.17
2023-03-08T06:45:49.586Z,96.55
2023-03-08T06:46:49.697Z,96.41
2023-03-08T06:47:50.467Z,96.59
2023-03-08T06:48:51.102Z,96.31
2023-03-08T06:49:52.506Z,96.12
2023-03-08T06:50:51.749Z,95.55
2023-03-08T06:51:52.657Z,95.84
2023-03-08T06:52:53.184Z,96.03
2023-03-08T06:53:53.441Z,96.03
2023-03-08T06:54:54.408Z,96.12
2023-03-08T06:55:55.380Z,96.12
2023-03-08T06:56:55.633Z,95.93
2023-03-08T06:57:55.753Z,95.55
2023-03-08T06:58:56.977Z,94.6
2023-03-08T06:59:57.236Z,94.42
2023-03-08T07:00:57.918Z,94.13
2023-03-08T07:01:59.180Z,94.13
2023-03-08T07:02:59.377Z,94.04
2023-03-08T07:04:00.115Z,93.46
2023-03-08T07:05:00.018Z,93.65
2023-03-08T07:06:01.272Z,93.08
2023-03-08T07:07:02.302Z,93.18
2023-03-08T07:08:02.606Z,93.46
2023-03-08T07:09:03.544Z,92.9
2023-03-08T07:10:03.909Z,93.51
2023-03-08T07:11:04.420Z,92.66
2023-03-08T07:12:05.758Z,92.57
2023-03-08T07:13:05.276Z,92.28
2023-03-08T07:14:05.913Z,91.9
2023-03-08T07:15:06.894Z,91.24
2023-03-08T07:16:08.271Z,91.42
2023-03-08T07:17:08.790Z,91.52
2023-03-08T07:18:09.861Z,90.76
2023-03-08T07:19:10.422Z,91.42
2023-03-08T07:20:11.390Z,90.76
2023-03-08T07:21:11.635Z,90.24
2023-03-08T07:22:12.124Z,90
2023-03-08T07:23:12.517Z,90.57
2023-03-08T07:24:13.874Z,90.67
2023-03-08T07:25:14.238Z,91.33
2023-03-08T07:26:14.741Z,91.71
2023-03-08T07:27:15.311Z,91.71
2023-03-08T07:28:15.844Z,91.33
2023-03-08T07:29:15.776Z,91.61
2023-03-08T07:30:16.051Z,91.42
2023-03-08T07:31:17.314Z,91.42
2023-03-08T07:32:17.876Z,91.33
2023-03-08T07:33:18.229Z,91.14
2023-03-08T07:34:18.444Z,91.05
2023-03-08T07:35:19.135Z,90.38
2023-03-08T07:36:20.477Z,90.86
2023-03-08T07:37:20.513Z,90.19
2023-03-08T07:38:21.141Z,90.38
2023-03-08T07:39:22.416Z,90.48
2023-03-08T07:40:23.454Z,90.57
2023-03-08T07:41:23.356Z,90.38
2023-03-08T07:42:24.384Z,90.57
2023-03-08T07:43:24.919Z,90.67
2023-03-08T07:44:25.846Z,90.57
2023-03-08T07:45:26.421Z,90.67
2023-03-08T07:46:26.714Z,90.86
2023-03-08T07:47:27.080Z,90.76
2023-03-08T07:48:28.109Z,90.86
2023-03-08T07:49:28.039Z,91.42
2023-03-08T07:50:28.445Z,90.76
2023-03-08T07:51:29.551Z,90.57
2023-03-08T07:52:29.504Z,90.38
2023-03-08T07:53:30.734Z,90.48
2023-03-08T07:54:30.998Z,90.38
2023-03-08T07:55:31.286Z,90.19
2023-03-08T07:56:31.961Z,90.38
2023-03-08T07:57:32.922Z,89.91
2023-03-08T07:58:33.587Z,89.25
2023-03-08T07:59:33.806Z,89.43
2023-03-08T08:00:34.222Z,90.33
2023-03-08T08:01:34.743Z,89.39
2023-03-08T08:02:35.688Z,89
2023-03-08T08:03:35.849Z,88.72
2023-03-08T08:04:36.122Z,89.29
2023-03-08T08:05:37.566Z,89.2
2023-03-08T08:06:37.475Z,89.2
2023-03-08T08:07:38.173Z,89.14
2023-03-08T08:08:38.918Z,88.48
2023-03-08T08:09:39.530Z,87.34
2023-03-08T08:10:40.084Z,86.63
2023-03-08T08:11:40.115Z,86.05
2023-03-08T08:12:41.060Z,84.39
2023-03-08T08:13:41.630Z,84.1
2023-03-08T08:14:41.887Z,83
2023-03-08T08:15:42.555Z,81.05
2023-03-08T08:16:43.339Z,79.14
2023-03-08T08:17:44.087Z,77.85
2023-03-08T08:18:44.581Z,76.9
2023-03-08T08:19:45.294Z,75.85
2023-03-08T08:20:46.255Z,74.65
2023-03-08T08:21:47.196Z,73.41
2023-03-08T08:22:47.403Z,73.22
2023-03-08T08:23:47.654Z,73.89
2023-03-08T08:24:48.214Z,73.61
2023-03-08T08:25:48.176Z,73.47
2023-03-08T08:26:48.729Z,73.66
2023-03-08T08:27:49.010Z,74.48
2023-03-08T08:28:49.053Z,75.53
2023-03-08T08:29:50.296Z,76.57
2023-03-08T08:30:51.354Z,77.34
2023-03-08T08:31:51.817Z,77.72
2023-03-08T08:32:52.288Z,77.53
2023-03-08T08:33:52.535Z,77.24
2023-03-08T08:34:52.789Z,77.3
2023-03-08T08:35:53.653Z,78.06
2023-03-08T08:36:53.757Z,77.87
2023-03-08T08:37:54.677Z,78.53
2023-03-08T08:38:55.061Z,79.39
2023-03-08T08:39:55.358Z,79.77
2023-03-08T08:40:55.835Z,79.86
2023-03-08T08:41:57.141Z,78.63
2023-03-08T08:42:57.115Z,78.82
2023-03-08T08:43:57.628Z,79.58
2023-03-08T08:44:58.626Z,79.01
2023-03-08T08:45:59.311Z,79.06
2023-03-08T08:46:59.535Z,79.73
2023-03-08T08:48:00.759Z,80.68
2023-03-08T08:49:01.302Z,81.63
2023-03-08T08:50:01.726Z,81.44
2023-03-08T08:51:02.241Z,81.82
2023-03-08T08:52:02.916Z,82.77
2023-03-08T08:53:03.578Z,82.96
2023-03-08T08:54:03.990Z,83.06
2023-03-08T08:55:04.804Z,82.68
2023-03-08T08:56:07.093Z,82.58
2023-03-08T08:57:05.293Z,83.06
2023-03-08T08:58:05.952Z,82.54
2023-03-08T08:59:06.669Z,83.87
2023-03-08T09:00:06.909Z,83.97
2023-03-08T09:01:09.454Z,84.25
2023-03-08T09:02:09.170Z,85.2
2023-03-08T09:03:09.497Z,85.68
2023-03-08T09:04:10.634Z,85.58
2023-03-08T09:05:11.484Z,85.3
2023-03-08T09:06:11.923Z,85.11
2023-03-08T09:07:12.615Z,85.3
2023-03-08T09:08:12.907Z,84.82
2023-03-08T09:09:13.142Z,84.72
2023-03-08T09:10:14.359Z,84.82
2023-03-08T09:11:14.867Z,84.25
2023-03-08T09:12:16.089Z,84.82
2023-03-08T09:13:16.732Z,84.91
2023-03-08T09:14:17.212Z,84.44
2023-03-08T09:15:17.322Z,84.25
2023-03-08T09:16:18.395Z,84.34
2023-03-08T09:17:18.944Z,84.34
2023-03-08T09:18:19.159Z,84.25
2023-03-08T09:19:19.869Z,84.82
2023-03-08T09:20:22.217Z,85.77
2023-03-08T09:21:20.282Z,85.96
2023-03-08T09:22:20.586Z,85.91
2023-03-08T09:23:21.243Z,84.77
2023-03-08T09:24:21.449Z,84.39
2023-03-08T09:25:22.144Z,84.48
2023-03-08T09:26:22.095Z,84.2
2023-03-08T09:27:23.094Z,84.39
2023-03-08T09:28:23.377Z,83.91
2023-03-08T09:29:23.848Z,83.06
2023-03-08T09:30:24.141Z,81.25
2023-03-08T09:31:24.843Z,79.63
2023-03-08T09:32:25.774Z,79.2
2023-03-08T09:33:25.657Z,78.63
2023-03-08T09:34:26.879Z,78.34
2023-03-08T09:35:27.145Z,78.63
2023-03-08T09:36:27.336Z,78.44
2023-03-08T09:37:27.717Z,77.87
2023-03-08T09:38:28.216Z,78.44
2023-03-08T09:39:29.407Z,77.77
2023-03-08T09:40:29.683Z,77.39
2023-03-08T09:41:30.361Z,77.3
2023-03-08T09:42:30.882Z,77.3
2023-03-08T09:43:31.186Z,77.68
2023-03-08T09:44:31.441Z,77.11
2023-03-08T09:45:32.409Z,77.2
2023-03-08T09:46:32.921Z,75.11
2023-03-08T09:47:33.671Z,73.97
2023-03-08T09:48:33.803Z,74.35
2023-03-08T09:49:33.839Z,74.44
2023-03-08T09:50:34.377Z,75.3
2023-03-08T09:51:34.597Z,75.78
2023-03-08T09:52:35.564Z,76.44
2023-03-08T09:53:35.867Z,76.73
2023-03-08T09:54:35.854Z,76.92
2023-03-08T09:55:36.431Z,75.53
2023-03-08T09:56:37.001Z,75.72
2023-03-08T09:57:37.431Z,75.62
2023-03-08T09:58:37.414Z,76.2
2023-03-08T09:59:37.870Z,76.39
2023-03-08T10:00:39.219Z,76.48
2023-03-08T10:01:39.737Z,75.34
2023-03-08T10:02:40.011Z,76.39
2023-03-08T10:03:41.933Z,75.43
2023-03-08T10:04:40.807Z,75.15
2023-03-08T10:05:41.045Z,74.58
2023-03-08T10:06:41.573Z,73.91
2023-03-08T10:07:41.853Z,73.06
2023-03-08T10:08:42.817Z,73.34
2023-03-08T10:09:43.169Z,73.34
2023-03-08T10:10:43.776Z,73.72
2023-03-08T10:11:44.331Z,72.67
2023-03-08T10:12:45.280Z,73.15
2023-03-08T10:13:45.573Z,73.25
2023-03-08T10:14:45.339Z,74.48
2023-03-08T10:15:46.587Z,75.24
2023-03-08T10:16:47.026Z,75.24
2023-03-08T10:17:47.643Z,75.76
2023-03-08T10:18:48.181Z,74.99
2023-03-08T10:19:48.641Z,73.85
2023-03-08T10:20:49.228Z,73.28
2023-03-08T10:21:49.783Z,71.19
2023-03-08T10:22:49.991Z,70.72
2023-03-08T10:23:50.662Z,71.28
2023-03-08T10:24:51.160Z,70.9
2023-03-08T10:25:52.136Z,70.43
2023-03-08T10:26:52.438Z,69.95
2023-03-08T10:27:52.452Z,69.76
2023-03-08T10:28:52.997Z,70.14
2023-03-08T10:29:53.077Z,70.24
2023-03-08T10:30:53.406Z,70.81
2023-03-08T10:31:54.187Z,71.19
2023-03-08T10:32:56.506Z,72.24
2023-03-08T10:33:56.273Z,72.52
2023-03-08T10:34:56.497Z,72.14
2023-03-08T10:35:57.248Z,72.05
2023-03-08T10:36:57.796Z,72.24
2023-03-08T10:37:58.084Z,72.75
2023-03-08T10:38:58.314Z,72.46
2023-03-08T10:39:58.961Z,72.17
2023-03-08T10:40:59.728Z,72.85
2023-03-08T10:42:00.042Z,73.13
2023-03-08T10:43:01.128Z,73.22
2023-03-08T10:44:01.776Z,73.61
2023-03-08T10:45:01.774Z,73.22
2023-03-08T10:46:03.153Z,73.32
2023-03-08T10:47:03.881Z,72.65
2023-03-08T10:48:04.652Z,72.75
2023-03-08T10:49:04.882Z,73.32
2023-03-08T10:50:05.196Z,73.51
2023-03-08T10:51:05.849Z,73.32
2023-03-08T10:52:06.162Z,73.51
2023-03-08T10:53:06.836Z,73.41
2023-03-08T10:54:07.081Z,73.51
2023-03-08T10:55:08.303Z,73.61
2023-03-08T10:56:09.446Z,73.41
2023-03-08T10:57:09.889Z,73.32
2023-03-08T10:58:11.106Z,73.13
2023-03-08T10:59:11.696Z,73.32
2023-03-08T11:00:12.392Z,72.69
2023-03-08T11:01:12.480Z,72.21
2023-03-08T11:02:12.746Z,72.88
2023-03-08T11:03:13.032Z,72.97
2023-03-08T11:04:13.296Z,73.65
2023-03-08T11:05:13.370Z,72.88
2023-03-08T11:06:13.592Z,73.3
2023-03-08T11:07:13.807Z,72.72
2023-03-08T11:08:14.040Z,72.53
2023-03-08T11:09:14.752Z,73.39
2023-03-08T11:10:15.871Z,72.92
2023-03-08T11:11:16.791Z,72.92
2023-03-08T11:12:18.234Z,72.63
2023-03-08T11:13:17.665Z,72.53
2023-03-08T11:14:18.027Z,73.3
2023-03-08T11:15:18.617Z,73.49
2023-03-08T11:16:20.129Z,72.44
2023-03-08T11:17:20.591Z,70.92
2023-03-08T11:18:20.800Z,71.11
2023-03-08T11:19:22.027Z,71.48
2023-03-08T11:20:21.967Z,71.87
2023-03-08T11:21:22.939Z,71.58
2023-03-08T11:22:23.879Z,71.58
2023-03-08T11:23:24.137Z,71.87
2023-03-08T11:24:24.748Z,72.44
2023-03-08T11:25:25.094Z,73.68
2023-03-08T11:26:25.388Z,72.25
2023-03-08T11:27:25.748Z,72.44
2023-03-08T11:28:25.794Z,72.44
2023-03-08T11:29:26.641Z,73.21
2023-03-08T11:30:26.786Z,74.82
2023-03-08T11:31:27.189Z,74.16
2023-03-08T11:32:28.087Z,73.96
2023-03-08T11:33:29.164Z,75.01
2023-03-08T11:34:29.359Z,75.01
2023-03-08T11:35:29.798Z,74.54
2023-03-08T11:36:29.854Z,73.68
2023-03-08T11:37:30.511Z,73.68
2023-03-08T11:38:30.749Z,73.58
2023-03-08T11:39:31.338Z,74.16
2023-03-08T11:40:31.739Z,73.87
2023-03-08T11:41:32.703Z,73.39
2023-03-08T11:42:33.207Z,72.82
2023-03-08T11:43:33.482Z,73.49
2023-03-08T11:44:34.518Z,73.21
2023-03-08T11:45:34.493Z,73.3
2023-03-08T11:46:35.579Z,73.11
2023-03-08T11:47:36.023Z,73.21
2023-03-08T11:48:36.303Z,73.49
2023-03-08T11:49:36.383Z,73.01
2023-03-08T11:50:37.134Z,72.34
2023-03-08T11:51:37.809Z,72.92
2023-03-08T11:52:38.476Z,72.53
2023-03-08T11:53:38.713Z,72.25
2023-03-08T11:54:39.684Z,72.16
2023-03-08T11:55:40.698Z,73.11
2023-03-08T11:56:41.681Z,73.87
2023-03-08T11:57:42.063Z,74.73
2023-03-08T11:58:42.281Z,73.77
2023-03-08T11:59:42.769Z,74.06
2023-03-08T12:00:42.617Z,74.54
2023-03-08T12:01:43.827Z,73.96
2023-03-08T12:02:44.214Z,74.73
2023-03-08T12:03:44.828Z,75.2
2023-03-08T12:04:45.809Z,75.78
2023-03-08T12:05:45.727Z,75.68
2023-03-08T12:06:45.942Z,77.59
2023-03-08T12:07:46.598Z,78.16
2023-03-08T12:08:47.108Z,77.87
2023-03-08T12:09:47.361Z,77.2
2023-03-08T12:10:47.696Z,77.2
2023-03-08T12:11:49.552Z,76.82
2023-03-08T12:12:49.308Z,76.73
2023-03-08T12:13:49.812Z,77.01
2023-03-08T12:14:50.470Z,76.25
2023-03-08T12:15:50.706Z,75.01
2023-03-08T12:16:51.337Z,75.01
2023-03-08T12:17:52.119Z,74.92
2023-03-08T12:18:52.339Z,75.11
2023-03-08T12:19:52.290Z,75.68
2023-03-08T12:20:52.635Z,76.82
2023-03-08T12:21:53.300Z,75.3
2023-03-08T12:22:53.950Z,73.96
2023-03-08T12:23:54.641Z,73.96
2023-03-08T12:24:55.292Z,74.63
2023-03-08T12:25:55.549Z,74.92
2023-03-08T12:26:56.996Z,75.62
2023-03-08T12:27:57.131Z,75.91
2023-03-08T12:28:58.301Z,76.67
2023-03-08T12:29:59.142Z,76.77
2023-03-08T12:30:59.774Z,76.67
2023-03-08T12:32:00.355Z,77.72
2023-03-08T12:33:00.898Z,77.72
2023-03-08T12:34:01.057Z,76.86
2023-03-08T12:35:01.767Z,76.67
2023-03-08T12:36:03.021Z,76.2
2023-03-08T12:37:03.828Z,76.01
2023-03-08T12:38:04.441Z,76.39
2023-03-08T12:39:05.125Z,76.77
2023-03-08T12:40:05.366Z,77.76
2023-03-08T12:41:06.172Z,77.47
2023-03-08T12:42:06.814Z,77.28
2023-03-08T12:43:06.836Z,77.57
2023-03-08T12:44:07.133Z,78.33
2023-03-08T12:45:07.386Z,78.56
2023-03-08T12:46:08.045Z,79.14
2023-03-08T12:47:09.554Z,79.04
2023-03-08T12:48:08.703Z,79.14
2023-03-08T12:49:09.359Z,80.19
2023-03-08T12:50:09.675Z,81.71
2023-03-08T12:51:09.487Z,82.32
2023-03-08T12:52:10.839Z,83.28
2023-03-08T12:53:11.197Z,83.47
2023-03-08T12:54:11.500Z,82.14
2023-03-08T12:55:12.444Z,81.37
2023-03-08T12:56:13.719Z,82.14
2023-03-08T12:57:14.032Z,80.9
2023-03-08T12:58:15.046Z,80.51
2023-03-08T12:59:15.547Z,80.61
2023-03-08T13:00:15.837Z,80.8
2023-03-08T13:01:16.714Z,80.32
2023-03-08T13:02:17.376Z,80.13